ZBSJ Airport Information

Runway Information
Runway 15 Length 11155 ft width 148 ft
Elevation 233 ft Threshold 0 ft Heading 147
Runway 33 Length 11155 ft Width 148 ft
Elevation 220 ft Threshold 0 ft Heading 327
Airport Frequencies
Type TWR Name SHIJIAZHUA Frequency 118.35 MHZ
Airport Navaids
Type NDB Name Wuji Frequency 272 KHZ
Type NDB Name Xingtang Frequency 235 KHZ
Type VOR-DME Name Zhengding Frequency 117700 KHZ
Airport Weather Information & NOTAM
ADDS - METARS form results

(0358 UTC 15 November 2018)
Data provider http://aviationweather.gov/metar/data/
 
METAR text: ZBSJ 150300Z 03002MPS 340V060 1300 R33/1600U BR OVC040 10/07 Q1026 BECMG TL0430 1500
Conditions at: ZBSJ (ZHENGDING , CN) observed 0300 UTC 15 November 2018
Temperature: 10.0°C (50°F)
Dewpoint: 7.0°C (45°F) [RH = 82%]
Pressure (altimeter): 30.30 inches Hg (1026.0 mb)
Winds: from the NNE (30 degrees) at 5 MPH (4 knots; 2.1 m/s)
Visibility: 0.81 miles (1.30 km)
Ceiling: 4000 feet AGL
Clouds: overcast cloud deck at 4000 feet AGL
Weather: BR  (mist)

Forecast for: ZBSJ (ZHENGDING , CN)
Text: TAF ZBSJ 141901Z 1500/1524 33004MPS 1600 BR NSC TX14/1506Z TN02/1521Z
Forecast period: 0000 UTC 15 November 2018 to 0000 UTC 16 November 2018
Forecast type: FROM: standard forecast or significant change
Winds: from the NNW (330 degrees) at 9 MPH (8 knots; 4.1 m/s)
Visibility: 0.99 miles (1.59 km)
Ceiling: unknown
Clouds: missing
Weather: BR  (mist)